createdAt,value
2018-12-26T00:00:51.699Z,101733.80
2018-12-26T00:03:25.718Z,101727.41
2018-12-26T00:06:00.643Z,101728.84
2018-12-26T00:08:40.294Z,101723.89
2018-12-26T00:11:11.360Z,101731.59
2018-12-26T00:13:42.008Z,101743.76
2018-12-26T00:16:14.221Z,101746.69
2018-12-26T00:18:51.148Z,101742.56
2018-12-26T00:21:28.552Z,101738.09
2018-12-26T00:23:59.821Z,101740.33
2018-12-26T00:26:31.005Z,101735.08
2018-12-26T00:29:07.149Z,101735.39
2018-12-26T00:31:39.065Z,101734.89
2018-12-26T00:34:10.550Z,101737.20
2018-12-26T00:36:43.022Z,101734.66
2018-12-26T00:39:25.459Z,101729.80
2018-12-26T00:41:59.921Z,101731.84
2018-12-26T00:45:12.422Z,101733.96
2018-12-26T00:47:43.481Z,101732.34
2018-12-26T00:50:14.164Z,101735.46
2018-12-26T00:52:45.471Z,101733.92
2018-12-26T00:55:16.887Z,101732.03
2018-12-26T00:57:49.182Z,101721.66
2018-12-26T01:00:24.333Z,101729.02
2018-12-26T01:02:57.903Z,101720.61
2018-12-26T01:05:30.690Z,101729.59
2018-12-26T01:08:01.553Z,101722.34
2018-12-26T01:10:32.861Z,101717.72
2018-12-26T01:13:04.873Z,101703.81
2018-12-26T01:15:36.097Z,101705.48
2018-12-26T01:18:06.827Z,101704.37
2018-12-26T01:20:38.052Z,101697.38
2018-12-26T01:23:09.236Z,101691.82
2018-12-26T01:25:43.166Z,101696.12
2018-12-26T01:28:14.203Z,101703.41
2018-12-26T01:30:46.625Z,101691.88
2018-12-26T01:33:19.825Z,101703.80
2018-12-26T01:35:53.346Z,101702.10
2018-12-26T01:38:26.307Z,101694.12
2018-12-26T01:40:59.167Z,101704.30
2018-12-26T01:43:30.039Z,101707.85
2018-12-26T01:46:04.661Z,101709.05
2018-12-26T01:48:34.937Z,101708.48
2018-12-26T01:51:05.221Z,101717.23
2018-12-26T01:53:35.491Z,101717.15
2018-12-26T01:56:05.802Z,101726.27
2018-12-26T01:58:36.025Z,101725.46
2018-12-26T02:01:19.996Z,101717.91
2018-12-26T02:03:51.357Z,101723.09
2018-12-26T02:06:23.777Z,101726.16
2018-12-26T02:08:54.469Z,101725.52
2018-12-26T02:11:25.498Z,101739.38
2018-12-26T02:13:56.230Z,101739.52
2018-12-26T02:16:27.056Z,101732.41
2018-12-26T02:18:58.050Z,101732.84
2018-12-26T02:21:30.068Z,101723.76
2018-12-26T02:24:01.333Z,101735.53
2018-12-26T02:26:36.370Z,101730.64
2018-12-26T02:29:04.985Z,101722.09
2018-12-26T02:31:35.976Z,101726.97
2018-12-26T02:34:06.819Z,101724.40
2018-12-26T02:36:37.654Z,101719.27
2018-12-26T02:39:09.542Z,101724.59
2018-12-26T02:41:40.183Z,101724.14
2018-12-26T02:44:10.897Z,101722.14
2018-12-26T02:46:41.873Z,101723.78
2018-12-26T02:49:12.793Z,101715.78
2018-12-26T02:51:44.268Z,101716.61
2018-12-26T02:54:16.517Z,101719.46
2018-12-26T02:56:49.117Z,101721.39
2018-12-26T02:59:20.293Z,101728.33
2018-12-26T03:01:51.195Z,101721.91
2018-12-26T03:04:24.010Z,101722.89
2018-12-26T03:06:54.845Z,101725.33
2018-12-26T03:09:25.529Z,101723.62
2018-12-26T03:11:56.188Z,101727.94
2018-12-26T03:14:27.845Z,101729.75
2018-12-26T03:16:58.658Z,101723.14
2018-12-26T03:19:29.303Z,101722.86
2018-12-26T03:22:01.422Z,101718.56
2018-12-26T03:24:32.374Z,101717.06
2018-12-26T03:27:03.156Z,101720.12
2018-12-26T03:29:34.176Z,101723.34
2018-12-26T03:32:07.767Z,101728.69
2018-12-26T03:34:39.445Z,101727.61
2018-12-26T03:37:10.544Z,101717.87
2018-12-26T03:39:41.279Z,101703.65
2018-12-26T03:42:12.218Z,101695.67
2018-12-26T03:44:43.463Z,101709.28
2018-12-26T03:47:14.370Z,101703.48
2018-12-26T03:50:08.628Z,101713.02
2018-12-26T03:52:39.349Z,101720.80
2018-12-26T03:55:11.500Z,101711.00
2018-12-26T03:57:42.844Z,101712.73
2018-12-26T04:00:14.019Z,101699.22
2018-12-26T04:02:45.725Z,101705.88
2018-12-26T04:05:16.628Z,101711.73
2018-12-26T04:07:48.148Z,101712.22
2018-12-26T04:10:19.197Z,101707.23
2018-12-26T04:12:49.988Z,101714.16
2018-12-26T04:15:21.041Z,101699.94
2018-12-26T04:17:52.227Z,101704.51
2018-12-26T04:20:25.255Z,101681.34
2018-12-26T04:22:56.591Z,101699.38
2018-12-26T04:25:29.946Z,101702.14
2018-12-26T04:28:01.150Z,101704.01
2018-12-26T04:30:31.422Z,101706.98
2018-12-26T04:33:01.620Z,101714.94
2018-12-26T04:35:32.694Z,101733.19
2018-12-26T04:38:03.073Z,101742.08
2018-12-26T04:40:33.398Z,101732.19
2018-12-26T04:43:03.642Z,101736.73
2018-12-26T04:45:33.919Z,101720.79
2018-12-26T04:48:04.889Z,101722.41
2018-12-26T04:50:35.248Z,101708.22
2018-12-26T04:53:05.602Z,101687.75
2018-12-26T04:55:36.606Z,101682.29
2018-12-26T04:58:07.031Z,101691.96
2018-12-26T05:00:43.159Z,101674.48
2018-12-26T05:03:14.365Z,101654.19
2018-12-26T05:05:45.175Z,101681.42
2018-12-26T05:08:18.719Z,101685.83
2018-12-26T05:10:52.244Z,101695.39
2018-12-26T05:13:23.553Z,101696.92
2018-12-26T05:15:54.448Z,101690.42
2018-12-26T05:18:25.345Z,101702.46
2018-12-26T05:20:58.105Z,101701.35
2018-12-26T05:23:29.604Z,101699.83
2018-12-26T05:26:00.588Z,101704.33
2018-12-26T05:28:31.716Z,101703.02
2018-12-26T05:31:03.436Z,101696.61
2018-12-26T05:33:34.366Z,101705.84
2018-12-26T05:36:05.304Z,101699.95
2018-12-26T05:38:36.234Z,101699.14
2018-12-26T05:41:07.755Z,101702.09
2018-12-26T05:43:38.449Z,101711.73
2018-12-26T05:46:09.123Z,101710.92
2018-12-26T05:48:40.018Z,101706.68
2018-12-26T05:51:10.929Z,101687.53
2018-12-26T05:53:41.766Z,101674.55
2018-12-26T05:56:12.686Z,101677.05
2018-12-26T05:58:43.035Z,101677.37
2018-12-26T06:01:13.174Z,101687.69
2018-12-26T06:03:43.508Z,101685.03
2018-12-26T06:06:13.737Z,101690.47
2018-12-26T06:08:44.031Z,101692.17
2018-12-26T06:11:14.239Z,101694.41
2018-12-26T06:13:44.644Z,101693.88
2018-12-26T06:16:15.305Z,101685.73
2018-12-26T06:18:45.978Z,101684.31
2018-12-26T06:21:16.432Z,101685.94
2018-12-26T06:23:55.245Z,101677.05
2018-12-26T06:26:26.725Z,101685.94
2018-12-26T06:28:58.801Z,101680.57
2018-12-26T06:31:29.434Z,101676.95
2018-12-26T06:33:59.899Z,101675.86
2018-12-26T06:36:30.636Z,101669.81
2018-12-26T06:39:01.740Z,101671.33
2018-12-26T06:41:32.388Z,101671.56
2018-12-26T06:44:03.623Z,101669.70
2018-12-26T06:46:34.607Z,101665.17
2018-12-26T06:49:04.993Z,101667.09
2018-12-26T06:51:35.240Z,101669.78
2018-12-26T06:54:06.032Z,101673.48
2018-12-26T06:56:36.748Z,101672.61
2018-12-26T06:59:06.947Z,101674.80
2018-12-26T07:01:37.733Z,101672.28
2018-12-26T07:04:07.942Z,101672.77
2018-12-26T07:06:38.245Z,101678.51
2018-12-26T07:09:08.747Z,101670.97
2018-12-26T07:11:40.473Z,101672.56
2018-12-26T07:14:11.183Z,101671.75
2018-12-26T07:16:42.012Z,101687.22
2018-12-26T07:19:12.741Z,101687.04
2018-12-26T07:21:44.864Z,101690.49
2018-12-26T07:24:15.497Z,101671.68
2018-12-26T07:26:46.202Z,101680.62
2018-12-26T07:29:17.129Z,101674.91
2018-12-26T07:31:47.834Z,101689.66
2018-12-26T07:34:18.502Z,101678.38
2018-12-26T07:36:49.682Z,101681.48
2018-12-26T07:39:20.374Z,101668.74
2018-12-26T07:41:50.953Z,101674.73
2018-12-26T07:44:21.784Z,101671.29
2018-12-26T07:46:52.433Z,101677.06
2018-12-26T07:49:23.301Z,101679.75
2018-12-26T07:51:54.142Z,101677.50
2018-12-26T07:54:24.829Z,101683.92
2018-12-26T07:56:56.153Z,101685.77
2018-12-26T07:59:26.704Z,101689.27
2018-12-26T08:01:59.351Z,101679.55
2018-12-26T08:04:29.734Z,101695.98
2018-12-26T08:07:00.394Z,101676.84
2018-12-26T08:09:31.172Z,101674.22
2018-12-26T08:12:01.782Z,101674.50
2018-12-26T08:14:32.882Z,101676.73
2018-12-26T08:17:03.723Z,101676.64
2018-12-26T08:19:34.283Z,101680.66
2018-12-26T08:22:04.802Z,101688.02
2018-12-26T08:24:35.642Z,101692.11
2018-12-26T08:27:07.146Z,101674.22
2018-12-26T08:29:40.939Z,101679.58
2018-12-26T08:32:11.782Z,101668.08
2018-12-26T08:34:42.500Z,101682.09
2018-12-26T08:37:13.356Z,101688.57
2018-12-26T08:39:44.049Z,101696.55
2018-12-26T08:42:14.870Z,101695.30
2018-12-26T08:44:45.449Z,101693.70
2018-12-26T08:47:16.945Z,101700.64
2018-12-26T08:49:48.542Z,101697.53
2018-12-26T08:52:21.526Z,101678.27
2018-12-26T08:54:53.815Z,101700.27
2018-12-26T08:57:38.626Z,101697.92
2018-12-26T09:00:32.234Z,101694.37
2018-12-26T09:03:07.959Z,101695.45
2018-12-26T09:05:41.856Z,101693.83
2018-12-26T09:08:12.563Z,101695.84
2018-12-26T09:10:45.958Z,101696.77
2018-12-26T09:13:17.033Z,101685.92
2018-12-26T09:15:56.074Z,101686.56
2018-12-26T09:18:26.644Z,101680.53
2018-12-26T09:21:27.107Z,101689.41
2018-12-26T09:23:57.908Z,101693.45
2018-12-26T09:26:49.425Z,101692.74
2018-12-26T09:29:19.888Z,101687.06
2018-12-26T09:31:50.387Z,101684.28
2018-12-26T09:34:20.745Z,101696.22
2018-12-26T09:36:50.987Z,101685.38
2018-12-26T09:39:21.301Z,101692.84
2018-12-26T09:41:51.608Z,101686.56
2018-12-26T09:44:22.366Z,101690.56
2018-12-26T09:46:52.684Z,101693.11
2018-12-26T09:49:23.131Z,101692.53
2018-12-26T09:51:53.449Z,101695.89
2018-12-26T09:54:23.686Z,101701.91
2018-12-26T09:56:53.836Z,101688.20
2018-12-26T09:59:24.214Z,101700.59
2018-12-26T10:01:54.505Z,101687.33
2018-12-26T10:04:24.903Z,101688.95
2018-12-26T10:06:55.164Z,101695.23
2018-12-26T10:09:25.463Z,101696.28
2018-12-26T10:11:55.721Z,101689.05
2018-12-26T10:14:52.387Z,101694.80
2018-12-26T10:17:30.501Z,101683.72
2018-12-26T10:20:16.971Z,101679.58
2018-12-26T10:22:59.669Z,101684.73
2018-12-26T10:25:44.994Z,101674.73
2018-12-26T10:28:23.672Z,101671.69
2018-12-26T10:31:09.370Z,101678.44
2018-12-26T10:33:54.663Z,101665.05
2018-12-26T10:36:35.952Z,101670.30
2018-12-26T10:39:33.130Z,101669.48
2018-12-26T10:42:10.575Z,101677.05
2018-12-26T10:45:02.146Z,101671.42
2018-12-26T10:47:39.298Z,101661.41
2018-12-26T10:50:11.868Z,101664.30
2018-12-26T10:52:42.717Z,101665.32
2018-12-26T10:55:12.940Z,101670.12
2018-12-26T10:58:03.749Z,101667.61
2018-12-26T11:00:37.530Z,101655.00
2018-12-26T11:03:10.869Z,101659.54
2018-12-26T11:05:44.723Z,101649.33
2018-12-26T11:11:05.153Z,101658.49
2018-12-26T11:13:35.504Z,101654.45
2018-12-26T11:16:10.652Z,101656.05
2018-12-26T11:18:41.640Z,101650.24
2018-12-26T11:21:12.483Z,101644.59
2018-12-26T11:23:44.270Z,101644.59
2018-12-26T11:26:15.312Z,101633.63
2018-12-26T11:28:47.962Z,101640.53
2018-12-26T11:31:20.686Z,101637.16
2018-12-26T11:33:52.523Z,101634.61
2018-12-26T11:36:26.322Z,101634.22
2018-12-26T11:38:57.627Z,101636.23
2018-12-26T11:41:28.723Z,101626.05
2018-12-26T11:44:04.580Z,101628.07
2018-12-26T11:46:42.057Z,101611.77
2018-12-26T11:49:14.747Z,101619.41
2018-12-26T11:51:47.069Z,101613.67
2018-12-26T11:54:18.051Z,101608.98
2018-12-26T11:56:49.665Z,101610.13
2018-12-26T11:59:27.118Z,101613.67
2018-12-26T12:01:52.997Z,101603.88
2018-12-26T12:04:23.973Z,101610.17
2018-12-26T12:06:56.753Z,101613.78
2018-12-26T12:09:27.695Z,101607.45
2018-12-26T12:11:58.734Z,101608.02
2018-12-26T12:14:30.565Z,101609.36
2018-12-26T12:17:01.663Z,101605.82
2018-12-26T12:19:32.683Z,101603.30
2018-12-26T12:22:03.418Z,101606.50
2018-12-26T12:24:34.184Z,101608.12
2018-12-26T12:27:05.337Z,101605.14
2018-12-26T12:29:36.071Z,101612.08
2018-12-26T12:32:08.399Z,101612.36
2018-12-26T12:34:39.134Z,101610.81
2018-12-26T12:37:10.497Z,101610.39
2018-12-26T12:39:41.146Z,101605.30
2018-12-26T12:42:11.894Z,101609.98
2018-12-26T12:44:42.682Z,101609.06
2018-12-26T12:50:24.038Z,101609.71
2018-12-26T12:52:55.271Z,101606.55
2018-12-26T12:55:26.306Z,101600.71
2018-12-26T12:57:57.590Z,101594.88
2018-12-26T13:00:28.070Z,101600.19
2018-12-26T13:03:00.613Z,101598.70
2018-12-26T13:05:31.107Z,101597.50
2018-12-26T13:08:02.691Z,101593.44
2018-12-26T13:10:33.727Z,101588.42
2018-12-26T13:13:05.586Z,101596.77
2018-12-26T13:15:36.627Z,101591.66
2018-12-26T13:18:08.324Z,101587.60
2018-12-26T13:20:40.005Z,101595.22
2018-12-26T13:23:10.776Z,101590.84
2018-12-26T13:25:41.777Z,101593.17
2018-12-26T13:28:13.099Z,101596.17
2018-12-26T13:30:43.557Z,101593.17
2018-12-26T13:33:14.577Z,101592.45
2018-12-26T13:35:44.875Z,101587.02
2018-12-26T13:38:15.606Z,101587.85
2018-12-26T13:40:45.947Z,101583.87
2018-12-26T13:43:16.221Z,101586.05
2018-12-26T13:45:46.465Z,101591.53
2018-12-26T13:48:16.886Z,101588.66
2018-12-26T13:50:47.115Z,101592.62
2018-12-26T13:53:17.438Z,101588.44
2018-12-26T13:55:49.511Z,101590.30
2018-12-26T13:58:22.229Z,101585.42
2018-12-26T14:00:53.572Z,101579.20
2018-12-26T14:03:24.861Z,101587.20
2018-12-26T14:06:00.354Z,101588.74
2018-12-26T14:08:33.251Z,101581.52
2018-12-26T14:11:15.107Z,101584.89
2018-12-26T14:13:46.085Z,101592.63
2018-12-26T14:16:17.070Z,101591.38
2018-12-26T14:18:47.516Z,101594.05
2018-12-26T14:21:17.839Z,101596.11
2018-12-26T14:23:48.154Z,101594.80
2018-12-26T14:26:18.626Z,101596.80
2018-12-26T14:28:49.025Z,101592.19
2018-12-26T14:31:19.291Z,101596.13
2018-12-26T14:33:49.597Z,101587.67
2018-12-26T14:36:27.148Z,101590.56
2018-12-26T14:38:59.679Z,101594.92
2018-12-26T14:41:33.318Z,101597.30
2018-12-26T14:44:09.437Z,101602.43
2018-12-26T14:46:40.525Z,101593.80
2018-12-26T14:49:12.140Z,101592.06
2018-12-26T14:51:43.192Z,101590.55
2018-12-26T14:54:14.075Z,101588.30
2018-12-26T14:56:45.813Z,101591.42
2018-12-26T14:59:17.443Z,101592.23
2018-12-26T15:01:48.447Z,101597.23
2018-12-26T15:04:19.348Z,101592.49
2018-12-26T15:06:50.611Z,101595.73
2018-12-26T15:09:21.034Z,101601.67
2018-12-26T15:11:51.375Z,101584.80
2018-12-26T15:14:32.319Z,101586.92
2018-12-26T15:17:03.404Z,101593.59
2018-12-26T15:19:34.267Z,101586.92
2018-12-26T15:22:05.870Z,101587.84
2018-12-26T15:24:36.938Z,101583.38
2018-12-26T15:27:09.566Z,101585.55
2018-12-26T15:29:41.825Z,101586.35
2018-12-26T15:32:27.791Z,101587.39
2018-12-26T15:34:58.735Z,101589.32
2018-12-26T15:37:30.145Z,101591.50
2018-12-26T15:40:00.928Z,101586.25
2018-12-26T15:42:33.821Z,101585.03
2018-12-26T15:45:05.149Z,101586.13
2018-12-26T15:47:36.787Z,101586.57
2018-12-26T15:50:08.155Z,101576.53
2018-12-26T15:52:39.035Z,101575.34
2018-12-26T15:55:09.826Z,101586.13
2018-12-26T15:57:40.683Z,101572.09
2018-12-26T16:00:11.778Z,101577.41
2018-12-26T16:02:42.081Z,101568.56
2018-12-26T16:05:12.405Z,101567.81
2018-12-26T16:07:45.231Z,101571.57
2018-12-26T16:10:15.873Z,101581.80
2018-12-26T16:12:48.167Z,101575.92
2018-12-26T16:15:18.869Z,101580.16
2018-12-26T16:17:49.703Z,101582.23
2018-12-26T16:20:20.539Z,101581.46
2018-12-26T16:22:51.168Z,101575.84
2018-12-26T16:25:22.154Z,101578.47
2018-12-26T16:27:53.012Z,101582.02
2018-12-26T16:30:23.730Z,101581.61
2018-12-26T16:32:54.545Z,101587.90
2018-12-26T16:35:25.404Z,101593.77
2018-12-26T16:38:33.249Z,101597.46
2018-12-26T16:41:04.221Z,101593.83
2018-12-26T16:43:34.875Z,101591.41
2018-12-26T16:46:06.392Z,101594.84
2018-12-26T16:48:37.118Z,101594.78
2018-12-26T16:51:07.756Z,101598.27
2018-12-26T16:53:38.379Z,101600.50
2018-12-26T16:56:09.448Z,101601.81
2018-12-26T16:58:40.507Z,101601.56
2018-12-26T17:01:15.180Z,101608.08
2018-12-26T17:03:46.070Z,101611.95
2018-12-26T17:06:16.813Z,101595.34
2018-12-26T17:08:47.660Z,101597.80
2018-12-26T17:11:24.563Z,101596.95
2018-12-26T17:13:55.437Z,101601.81
2018-12-26T17:16:26.130Z,101603.30
2018-12-26T17:18:56.781Z,101603.06
2018-12-26T17:21:27.621Z,101603.57
2018-12-26T17:23:58.334Z,101599.22
2018-12-26T17:26:28.941Z,101600.77
2018-12-26T17:28:59.730Z,101606.26
2018-12-26T17:31:30.361Z,101611.14
2018-12-26T17:34:00.968Z,101615.94
2018-12-26T17:36:31.734Z,101615.44
2018-12-26T17:39:02.462Z,101603.52
2018-12-26T17:41:33.076Z,101604.65
2018-12-26T17:44:03.806Z,101598.84
2018-12-26T17:46:40.358Z,101610.58
2018-12-26T17:49:11.015Z,101615.59
2018-12-26T17:51:42.137Z,101615.52
2018-12-26T17:57:44.987Z,101614.84
2018-12-26T18:00:48.027Z,101614.81
2018-12-26T18:03:18.570Z,101617.46
2018-12-26T18:05:49.773Z,101625.75
2018-12-26T18:08:24.933Z,101622.77
2018-12-26T18:10:56.774Z,101619.49
2018-12-26T18:13:27.470Z,101624.94
2018-12-26T18:16:07.385Z,101626.33
2018-12-26T18:18:45.640Z,101625.81
2018-12-26T18:21:16.357Z,101633.29
2018-12-26T18:23:46.979Z,101633.50
2018-12-26T18:26:18.238Z,101630.61
2018-12-26T18:28:49.313Z,101628.81
2018-12-26T18:31:21.980Z,101634.36
2018-12-26T18:33:52.276Z,101635.11
2018-12-26T18:36:22.985Z,101620.50
2018-12-26T18:38:55.648Z,101620.56
2018-12-26T18:41:29.385Z,101625.80
2018-12-26T18:44:00.197Z,101624.22
2018-12-26T18:46:31.418Z,101624.91
2018-12-26T18:49:02.137Z,101621.97
2018-12-26T18:51:33.214Z,101618.58
2018-12-26T18:54:04.044Z,101624.38
2018-12-26T18:56:34.750Z,101622.14
2018-12-26T18:59:05.434Z,101621.81
2018-12-26T19:01:36.334Z,101620.32
2018-12-26T19:04:07.023Z,101622.95
2018-12-26T19:06:37.679Z,101621.76
2018-12-26T19:09:08.772Z,101631.23
2018-12-26T19:12:08.948Z,101627.59
2018-12-26T19:14:40.390Z,101632.12
2018-12-26T19:17:11.309Z,101635.68
2018-12-26T19:19:41.687Z,101636.48
2018-12-26T19:22:11.904Z,101628.61
2018-12-26T19:24:42.226Z,101633.18
2018-12-26T19:27:12.538Z,101637.37
2018-12-26T19:29:42.882Z,101631.53
2018-12-26T19:32:13.141Z,101630.81
2018-12-26T19:34:43.862Z,101629.32
2018-12-26T19:37:14.377Z,101633.81
2018-12-26T19:39:44.907Z,101632.11
2018-12-26T19:42:15.257Z,101627.38
2018-12-26T19:44:46.038Z,101628.27
2018-12-26T19:47:17.220Z,101623.78
2018-12-26T19:49:47.564Z,101626.45
2018-12-26T19:52:23.932Z,101634.32
2018-12-26T19:54:54.771Z,101632.11
2018-12-26T19:57:26.014Z,101621.36
2018-12-26T19:59:57.417Z,101628.05
2018-12-26T20:02:28.473Z,101620.32
2018-12-26T20:04:59.151Z,101628.23
2018-12-26T20:07:31.971Z,101621.08
2018-12-26T20:10:10.494Z,101621.25
2018-12-26T20:12:44.390Z,101627.88
2018-12-26T20:15:33.807Z,101620.51
2018-12-26T20:18:05.170Z,101627.59
2018-12-26T20:20:45.735Z,101621.92
2018-12-26T20:23:17.019Z,101613.80
2018-12-26T20:25:50.402Z,101621.92
2018-12-26T20:29:05.634Z,101621.30
2018-12-26T20:31:39.894Z,101617.66
2018-12-26T20:34:36.492Z,101626.08
2018-12-26T20:36:45.897Z,101629.58
2018-12-26T20:39:20.753Z,101620.52
2018-12-26T20:41:57.131Z,101613.96
2018-12-26T20:44:28.187Z,101620.69
2018-12-26T20:47:00.181Z,101626.51
2018-12-26T20:49:33.767Z,101616.75
2018-12-26T20:52:04.337Z,101619.34
2018-12-26T20:54:35.092Z,101622.64
2018-12-26T20:57:08.323Z,101615.70
2018-12-26T20:59:39.055Z,101614.98
2018-12-26T21:02:10.363Z,101616.00
2018-12-26T21:04:43.253Z,101617.96
2018-12-26T21:07:16.106Z,101610.83
2018-12-26T21:09:46.894Z,101618.20
2018-12-26T21:12:28.817Z,101609.44
2018-12-26T21:15:07.312Z,101616.80
2018-12-26T21:17:39.170Z,101606.66
2018-12-26T21:20:14.417Z,101611.05
2018-12-26T21:22:46.749Z,101616.86
2018-12-26T21:25:19.681Z,101618.02
2018-12-26T21:27:53.913Z,101617.14
2018-12-26T21:30:26.833Z,101618.45
2018-12-26T21:33:05.970Z,101618.20
2018-12-26T21:35:37.409Z,101619.14
2018-12-26T21:38:08.690Z,101612.95
2018-12-26T21:40:40.699Z,101616.00
2018-12-26T21:43:12.305Z,101615.64
2018-12-26T21:45:57.717Z,101608.93
2018-12-26T21:48:38.658Z,101610.21
2018-12-26T21:51:09.008Z,101612.58
2018-12-26T21:53:48.909Z,101612.58
2018-12-26T21:56:25.282Z,101618.33
2018-12-26T21:58:56.877Z,101614.81
2018-12-26T22:01:27.597Z,101613.66
2018-12-26T22:04:01.113Z,101612.19
2018-12-26T22:06:45.133Z,101610.35
2018-12-26T22:09:17.949Z,101614.01
2018-12-26T22:11:50.478Z,101612.93
2018-12-26T22:14:21.223Z,101616.73
2018-12-26T22:16:54.338Z,101610.41
2018-12-26T22:19:25.151Z,101614.91
2018-12-26T22:22:23.107Z,101618.95
2018-12-26T22:24:54.041Z,101615.33
2018-12-26T22:27:30.824Z,101611.43
2018-12-26T22:30:05.131Z,101608.98
2018-12-26T22:32:35.110Z,101618.45
2018-12-26T22:35:06.105Z,101606.40
2018-12-26T22:37:36.923Z,101609.56
2018-12-26T22:40:07.864Z,101606.94
2018-12-26T22:42:50.814Z,101608.12
2018-12-26T22:45:44.070Z,101615.48
2018-12-26T22:48:19.703Z,101611.31
2018-12-26T22:50:50.016Z,101602.93
2018-12-26T22:53:22.418Z,101605.30
2018-12-26T22:55:52.722Z,101600.98
2018-12-26T22:58:23.089Z,101602.71
2018-12-26T23:01:00.035Z,101596.73
2018-12-26T23:03:49.332Z,101593.98
2018-12-26T23:06:20.682Z,101594.16
2018-12-26T23:08:53.462Z,101595.43
2018-12-26T23:11:24.012Z,101603.17
2018-12-26T23:13:55.211Z,101594.44
2018-12-26T23:16:25.908Z,101594.38
2018-12-26T23:18:58.181Z,101592.85
2018-12-26T23:21:29.125Z,101594.10
2018-12-26T23:24:02.230Z,101595.98
2018-12-26T23:26:36.682Z,101594.16
2018-12-26T23:29:10.409Z,101587.93
2018-12-26T23:31:41.772Z,101589.59
2018-12-26T23:34:15.443Z,101598.14
2018-12-26T23:36:46.105Z,101592.22
2018-12-26T23:39:16.798Z,101585.95
2018-12-26T23:41:47.674Z,101585.53
2018-12-26T23:44:19.539Z,101581.63
2018-12-26T23:46:55.704Z,101583.16
2018-12-26T23:49:26.103Z,101576.70
2018-12-26T23:51:56.698Z,101572.66
2018-12-26T23:54:27.674Z,101565.14
2018-12-26T23:56:58.296Z,101569.75
2018-12-26T23:59:29.167Z,101566.11
